Dubai, United Arab Emirates
Current Conditions -  °F | °C
As of 11:00 AM on Sunday 26 Oct 2014 (Local Time) from OMDB Reporting Station
Clear Clear  
Wind Chill: 33°   Ceiling: Unl
Heat Index: 33°   Visibility: 6mi
Dew Point: 16°   Wind: 6mph
Humidity: 36%   Direction: 190°S
Pressure: 29.94"   Gusts: NA
Location:  25.27°N, 55.33°E
Report Text: OMDB 260700Z 19005KT 130V250 CAVOK 33/16 Q1014 NOSIG
Loading
Personal Weather Stations






























Interactive Weather Map
Tropical Storm Tracking
New forecast layout! Learn more

10-Day Weather Forecast

Advertisements
Track Severe Weather on mobile